createdAt,value
2022-10-20T00:00:40.367Z,1012.92
2022-10-20T00:01:40.433Z,1012.89
2022-10-20T00:02:40.677Z,1012.86
2022-10-20T00:03:40.326Z,1012.85
2022-10-20T00:04:40.335Z,1012.81
2022-10-20T00:05:40.309Z,1012.83
2022-10-20T00:06:40.307Z,1012.80
2022-10-20T00:07:40.318Z,1012.76
2022-10-20T00:08:40.319Z,1012.77
2022-10-20T00:09:40.309Z,1012.77
2022-10-20T00:10:40.254Z,1012.71
2022-10-20T00:11:40.237Z,1012.68
2022-10-20T00:12:40.227Z,1012.62
2022-10-20T00:13:40.216Z,1012.62
2022-10-20T00:14:40.212Z,1012.59
2022-10-20T00:15:40.197Z,1012.54
2022-10-20T00:16:40.174Z,1012.49
2022-10-20T00:17:40.182Z,1012.47
2022-10-20T00:18:40.151Z,1012.43
2022-10-20T00:19:40.157Z,1012.47
2022-10-20T00:20:40.136Z,1012.44
2022-10-20T00:21:40.118Z,1012.45
2022-10-20T00:22:40.113Z,1012.42
2022-10-20T00:23:40.105Z,1012.44
2022-10-20T00:24:40.105Z,1012.47
2022-10-20T00:25:40.098Z,1012.44
2022-10-20T00:26:40.070Z,1012.43
2022-10-20T00:27:40.055Z,1012.46
2022-10-20T00:28:40.054Z,1012.48
2022-10-20T00:29:40.093Z,1012.50
2022-10-20T00:30:40.028Z,1012.52
2022-10-20T00:31:40.010Z,1012.48
2022-10-20T00:32:40.007Z,1012.45
2022-10-20T00:33:39.988Z,1012.42
2022-10-20T00:34:39.992Z,1012.37
2022-10-20T00:35:40.011Z,1012.35
2022-10-20T00:36:39.986Z,1012.33
2022-10-20T00:37:39.961Z,1012.34
2022-10-20T00:38:40.031Z,1012.32
2022-10-20T00:39:39.942Z,1012.28
2022-10-20T00:40:39.913Z,1012.28
2022-10-20T00:41:39.928Z,1012.27
2022-10-20T00:42:39.880Z,1012.32
2022-10-20T00:43:39.869Z,1012.30
2022-10-20T00:44:39.875Z,1012.27
2022-10-20T00:45:39.843Z,1012.33
2022-10-20T00:46:39.847Z,1012.31
2022-10-20T00:47:39.903Z,1012.36
2022-10-20T00:48:39.818Z,1012.31
2022-10-20T00:49:39.807Z,1012.32
2022-10-20T00:50:39.805Z,1012.27
2022-10-20T00:51:39.781Z,1012.22
2022-10-20T00:52:39.774Z,1012.20
2022-10-20T00:53:39.766Z,1012.20
2022-10-20T00:54:39.751Z,1012.16
2022-10-20T00:55:39.753Z,1012.17
2022-10-20T00:56:39.727Z,1012.18
2022-10-20T00:57:39.739Z,1012.17
2022-10-20T00:58:39.703Z,1012.15
2022-10-20T00:59:39.694Z,1012.13
2022-10-20T01:00:39.699Z,1012.09
2022-10-20T01:01:39.746Z,1012.10
2022-10-20T01:02:39.654Z,1012.14
2022-10-20T01:03:39.641Z,1012.16
2022-10-20T01:04:39.638Z,1012.18
2022-10-20T01:05:39.632Z,1012.18
2022-10-20T01:06:39.607Z,1012.18
2022-10-20T01:07:39.736Z,1012.17
2022-10-20T01:08:39.620Z,1012.15
2022-10-20T01:09:39.581Z,1012.11
2022-10-20T01:10:39.582Z,1012.09
2022-10-20T01:11:39.557Z,1012.06
2022-10-20T01:12:39.546Z,1011.98
2022-10-20T01:13:39.557Z,1011.94
2022-10-20T01:14:39.528Z,1011.90
2022-10-20T01:15:39.516Z,1011.92
2022-10-20T01:16:39.495Z,1011.92
2022-10-20T01:17:39.558Z,1011.86
2022-10-20T01:18:39.472Z,1011.87
2022-10-20T01:19:39.473Z,1011.82
2022-10-20T01:20:39.471Z,1011.84
2022-10-20T01:21:39.437Z,1011.82
2022-10-20T01:22:39.435Z,1011.81
2022-10-20T01:23:39.418Z,1011.80
2022-10-20T01:24:39.412Z,1011.77
2022-10-20T01:25:39.407Z,1011.75
2022-10-20T01:26:39.386Z,1011.76
2022-10-20T01:27:39.521Z,1011.70
2022-10-20T01:28:39.359Z,1011.74
2022-10-20T01:29:39.378Z,1011.74
2022-10-20T01:30:39.352Z,1011.76
2022-10-20T01:31:39.323Z,1011.76
2022-10-20T01:32:39.316Z,1011.76
2022-10-20T01:33:39.301Z,1011.76
2022-10-20T01:34:39.291Z,1011.77
2022-10-20T01:35:39.277Z,1011.78
2022-10-20T01:36:39.280Z,1011.79
2022-10-20T01:37:48.852Z,1011.78
2022-10-20T01:38:40.244Z,1011.70
2022-10-20T01:39:39.233Z,1011.72
2022-10-20T01:40:39.223Z,1011.67
2022-10-20T01:41:39.250Z,1011.65
2022-10-20T01:42:39.201Z,1011.66
2022-10-20T01:43:39.197Z,1011.64
2022-10-20T01:44:39.184Z,1011.63
2022-10-20T01:45:39.185Z,1011.65
2022-10-20T01:46:39.171Z,1011.56
2022-10-20T01:47:39.308Z,1011.56
2022-10-20T01:48:39.138Z,1011.53
2022-10-20T01:49:39.128Z,1011.50
2022-10-20T01:50:39.121Z,1011.46
2022-10-20T01:51:39.162Z,1011.47
2022-10-20T01:52:39.427Z,1011.38
2022-10-20T01:53:39.091Z,1011.38
2022-10-20T01:54:39.070Z,1011.38
2022-10-20T01:55:39.061Z,1011.35
2022-10-20T01:56:39.056Z,1011.33
2022-10-20T01:57:39.046Z,1011.35
2022-10-20T01:58:39.024Z,1011.31
2022-10-20T01:59:39.013Z,1011.31
2022-10-20T02:00:39.011Z,1011.32
2022-10-20T02:01:39.114Z,1011.30
2022-10-20T02:02:39.274Z,1011.30
2022-10-20T02:03:38.960Z,1011.27
2022-10-20T02:04:38.969Z,1011.25
2022-10-20T02:05:38.935Z,1011.30
2022-10-20T02:06:38.939Z,1011.28
2022-10-20T02:07:38.914Z,1011.27
2022-10-20T02:08:38.984Z,1011.24
2022-10-20T02:09:38.893Z,1011.25
2022-10-20T02:10:38.879Z,1011.24
2022-10-20T02:11:38.883Z,1011.31
2022-10-20T02:12:39.242Z,1011.26
2022-10-20T02:13:38.854Z,1011.27
2022-10-20T02:14:38.844Z,1011.22
2022-10-20T02:15:38.837Z,1011.09
2022-10-20T02:16:38.831Z,1011.08
2022-10-20T02:17:38.842Z,1011.04
2022-10-20T02:18:38.791Z,1011.01
2022-10-20T02:19:38.787Z,1011.03
2022-10-20T02:20:38.776Z,1011.02
2022-10-20T02:21:38.776Z,1011.00
2022-10-20T02:22:38.983Z,1011.00
2022-10-20T02:23:38.731Z,1010.94
2022-10-20T02:24:38.740Z,1010.93
2022-10-20T02:25:38.719Z,1010.93
2022-10-20T02:26:38.706Z,1010.93
2022-10-20T02:27:38.702Z,1010.96
2022-10-20T02:28:38.678Z,1010.95
2022-10-20T02:29:38.675Z,1010.98
2022-10-20T02:30:38.661Z,1010.96
2022-10-20T02:31:38.647Z,1010.94
2022-10-20T02:32:39.260Z,1010.95
2022-10-20T02:33:38.648Z,1010.93
2022-10-20T02:34:42.286Z,1010.92
2022-10-20T02:35:38.597Z,1010.95
2022-10-20T02:36:38.594Z,1010.98
2022-10-20T02:37:38.881Z,1011.02
2022-10-20T02:38:38.567Z,1011.02
2022-10-20T02:39:38.551Z,1010.99
2022-10-20T02:40:38.541Z,1010.94
2022-10-20T02:41:38.530Z,1010.93
2022-10-20T02:42:38.523Z,1010.96
2022-10-20T02:43:38.524Z,1010.92
2022-10-20T02:44:38.504Z,1010.90
2022-10-20T02:45:38.490Z,1010.90
2022-10-20T02:46:38.479Z,1010.84
2022-10-20T02:47:38.776Z,1010.85
2022-10-20T02:48:38.474Z,1010.80
2022-10-20T02:49:38.466Z,1010.75
2022-10-20T02:50:38.427Z,1010.72
2022-10-20T02:51:38.414Z,1010.76
2022-10-20T02:52:38.411Z,1010.73
2022-10-20T02:53:38.422Z,1010.77
2022-10-20T02:54:38.381Z,1010.74
2022-10-20T02:55:38.384Z,1010.74
2022-10-20T02:56:38.369Z,1010.77
2022-10-20T02:57:38.838Z,1010.78
2022-10-20T02:58:38.366Z,1010.82
2022-10-20T02:59:38.323Z,1010.75
2022-10-20T03:00:38.318Z,1010.80
2022-10-20T03:01:38.328Z,1010.68
2022-10-20T03:02:38.290Z,1010.73
2022-10-20T03:03:38.298Z,1010.69
2022-10-20T03:04:38.267Z,1010.68
2022-10-20T03:05:38.286Z,1010.62
2022-10-20T03:06:38.254Z,1010.53
2022-10-20T03:07:38.625Z,1010.55
2022-10-20T03:08:38.315Z,1010.56
2022-10-20T03:09:38.217Z,1010.47
2022-10-20T03:10:38.203Z,1010.53
2022-10-20T03:11:38.196Z,1010.51
2022-10-20T03:12:38.176Z,1010.54
2022-10-20T03:13:38.190Z,1010.52
2022-10-20T03:14:38.163Z,1010.53
2022-10-20T03:15:38.167Z,1010.51
2022-10-20T03:16:38.134Z,1010.51
2022-10-20T03:17:38.312Z,1010.47
2022-10-20T03:18:38.131Z,1010.42
2022-10-20T03:19:38.103Z,1010.49
2022-10-20T03:20:38.092Z,1010.47
2022-10-20T03:21:38.105Z,1010.43
2022-10-20T03:22:38.068Z,1010.48
2022-10-20T03:23:38.074Z,1010.46
2022-10-20T03:24:38.055Z,1010.53
2022-10-20T03:25:38.039Z,1010.56
2022-10-20T03:26:38.029Z,1010.49
2022-10-20T03:27:38.295Z,1010.51
2022-10-20T03:28:38.021Z,1010.50
2022-10-20T03:29:37.985Z,1010.46
2022-10-20T03:30:37.980Z,1010.47
2022-10-20T03:31:38.035Z,1010.51
2022-10-20T03:32:38.375Z,1010.48
2022-10-20T03:33:37.951Z,1010.47
2022-10-20T03:34:37.929Z,1010.45
2022-10-20T03:35:37.916Z,1010.40
2022-10-20T03:36:37.910Z,1010.45
2022-10-20T03:37:37.922Z,1010.41
2022-10-20T03:38:37.908Z,1010.41
2022-10-20T03:39:37.876Z,1010.45
2022-10-20T03:40:37.863Z,1010.43
2022-10-20T03:41:37.851Z,1010.40
2022-10-20T03:42:38.061Z,1010.39
2022-10-20T03:43:37.866Z,1010.42
2022-10-20T03:44:37.837Z,1010.33
2022-10-20T03:45:37.802Z,1010.33
2022-10-20T03:46:37.799Z,1010.31
2022-10-20T03:47:37.790Z,1010.32
2022-10-20T03:48:37.778Z,1010.27
2022-10-20T03:49:37.774Z,1010.36
2022-10-20T03:50:37.756Z,1010.40
2022-10-20T03:51:37.743Z,1010.34
2022-10-20T03:52:38.100Z,1010.31
2022-10-20T03:53:37.731Z,1010.27
2022-10-20T03:54:37.727Z,1010.16
2022-10-20T03:55:37.688Z,1010.09
2022-10-20T03:56:37.686Z,1010.13
2022-10-20T03:57:38.118Z,1010.12
2022-10-20T03:58:37.667Z,1010.12
2022-10-20T03:59:37.663Z,1010.13
2022-10-20T04:00:37.652Z,1010.10
2022-10-20T04:01:37.677Z,1010.11
2022-10-20T04:02:37.981Z,1010.14
2022-10-20T04:03:37.599Z,1010.13
2022-10-20T04:04:37.591Z,1010.13
2022-10-20T04:05:37.570Z,1010.09
2022-10-20T04:06:37.573Z,1010.18
2022-10-20T04:07:37.553Z,1010.22
2022-10-20T04:08:37.595Z,1010.28
2022-10-20T04:09:37.566Z,1010.26
2022-10-20T04:10:37.521Z,1010.25
2022-10-20T04:11:37.510Z,1010.26
2022-10-20T04:12:38.002Z,1010.29
2022-10-20T04:13:37.486Z,1010.32
2022-10-20T04:14:37.494Z,1010.31
2022-10-20T04:15:37.463Z,1010.25
2022-10-20T04:16:37.450Z,1010.21
2022-10-20T04:17:37.436Z,1010.09
2022-10-20T04:18:37.436Z,1010.07
2022-10-20T04:19:37.426Z,1009.96
2022-10-20T04:20:39.366Z,1009.84
2022-10-20T04:21:37.396Z,1009.82
2022-10-20T04:22:37.770Z,1009.82
2022-10-20T04:23:37.371Z,1009.73
2022-10-20T04:24:37.387Z,1009.73
2022-10-20T04:25:37.371Z,1009.74
2022-10-20T04:26:37.404Z,1009.69
2022-10-20T04:27:37.701Z,1009.70
2022-10-20T04:28:37.322Z,1009.69
2022-10-20T04:29:37.325Z,1009.75
2022-10-20T04:30:37.299Z,1009.76
2022-10-20T04:31:37.289Z,1009.78
2022-10-20T04:32:37.280Z,1009.77
2022-10-20T04:33:37.259Z,1009.71
2022-10-20T04:34:37.268Z,1009.68
2022-10-20T04:35:37.310Z,1009.72
2022-10-20T04:36:37.230Z,1009.68
2022-10-20T04:37:37.642Z,1009.61
2022-10-20T04:38:37.202Z,1009.63
2022-10-20T04:39:37.209Z,1009.60
2022-10-20T04:40:37.188Z,1009.58
2022-10-20T04:41:37.188Z,1009.59
2022-10-20T04:42:37.154Z,1009.57
2022-10-20T04:43:37.157Z,1009.55
2022-10-20T04:44:37.180Z,1009.56
2022-10-20T04:45:37.129Z,1009.52
2022-10-20T04:46:37.112Z,1009.52
2022-10-20T04:47:37.454Z,1009.53
2022-10-20T04:48:37.186Z,1009.49
2022-10-20T04:49:37.091Z,1009.55
2022-10-20T04:50:37.072Z,1009.54
2022-10-20T04:51:37.057Z,1009.59
2022-10-20T04:52:37.043Z,1009.54
2022-10-20T07:39:59.447Z,1008.91
2022-10-20T07:41:00.767Z,1008.91
2022-10-20T07:41:59.376Z,1008.92
2022-10-20T07:42:59.345Z,1008.93
2022-10-20T07:43:59.342Z,1008.94
2022-10-20T07:44:59.328Z,1008.95
2022-10-20T07:45:59.336Z,1008.90
2022-10-20T07:46:59.314Z,1008.83
2022-10-20T07:47:59.293Z,1008.87
2022-10-20T07:49:11.371Z,1008.77
2022-10-20T07:50:00.297Z,1008.76
2022-10-20T07:50:59.285Z,1008.78
2022-10-20T07:51:59.257Z,1008.80
2022-10-20T07:52:59.235Z,1008.87
2022-10-20T07:54:00.599Z,1008.97
2022-10-20T07:55:07.536Z,1009.00
2022-10-20T07:56:00.244Z,1009.03
2022-10-20T07:56:59.191Z,1008.95
2022-10-20T07:57:59.180Z,1009.03
2022-10-20T07:58:59.175Z,1009.02
2022-10-20T07:59:59.157Z,1009.00
2022-10-20T08:00:59.159Z,1008.92
2022-10-20T08:02:00.215Z,1008.84
2022-10-20T08:02:59.119Z,1008.86
2022-10-20T08:03:59.113Z,1008.85
2022-10-20T08:04:59.106Z,1008.79
2022-10-20T08:05:59.106Z,1008.84
2022-10-20T08:06:59.074Z,1008.87
2022-10-20T08:07:59.072Z,1008.92
2022-10-20T08:08:59.105Z,1008.88
2022-10-20T08:09:59.064Z,1008.87
2022-10-20T08:10:59.056Z,1008.87
2022-10-20T08:11:59.043Z,1008.88
2022-10-20T08:12:59.017Z,1008.87
2022-10-20T08:13:59.004Z,1008.88
2022-10-20T08:14:58.994Z,1008.81
2022-10-20T08:15:59.986Z,1008.74
2022-10-20T08:17:00.989Z,1008.72
2022-10-20T08:17:58.957Z,1008.69
2022-10-20T08:18:59.003Z,1008.67
2022-10-20T08:20:23.572Z,1008.66
2022-10-20T08:20:59.942Z,1008.69
2022-10-20T08:21:58.911Z,1008.69
2022-10-20T08:22:58.896Z,1008.66
2022-10-20T08:23:58.893Z,1008.75
2022-10-20T08:24:58.880Z,1008.82
2022-10-20T08:25:58.869Z,1008.77
2022-10-20T08:26:58.873Z,1008.91
2022-10-20T08:28:58.837Z,1008.97
2022-10-20T08:30:06.294Z,1009.01
2022-10-20T08:30:59.805Z,1009.02
2022-10-20T08:31:58.810Z,1008.94
2022-10-20T08:32:58.783Z,1008.86
2022-10-20T08:33:58.779Z,1008.90
2022-10-20T08:34:58.764Z,1008.87
2022-10-20T08:35:58.751Z,1008.82
2022-10-20T08:36:58.755Z,1008.78
2022-10-20T08:37:58.738Z,1008.81
2022-10-20T08:39:02.102Z,1008.85
2022-10-20T08:39:59.705Z,1008.87
2022-10-20T08:40:58.702Z,1008.86
2022-10-20T08:42:14.193Z,1008.75
2022-10-20T08:42:59.678Z,1008.72
2022-10-20T08:43:58.687Z,1008.78
2022-10-20T08:44:58.656Z,1008.65
2022-10-20T08:45:58.642Z,1008.68
2022-10-20T08:46:58.648Z,1008.70
2022-10-20T08:47:58.618Z,1008.62
2022-10-20T08:48:58.611Z,1008.72
2022-10-20T08:49:58.605Z,1008.74
2022-10-20T08:50:58.588Z,1008.77
2022-10-20T08:51:58.603Z,1008.67
2022-10-20T08:52:58.575Z,1008.62
2022-10-20T08:53:58.551Z,1008.63
2022-10-20T08:54:58.547Z,1008.70
2022-10-20T08:55:58.528Z,1008.73
2022-10-20T08:56:58.534Z,1008.67
2022-10-20T08:57:58.508Z,1008.67
2022-10-20T08:58:58.500Z,1008.65
2022-10-20T08:59:58.510Z,1008.66
2022-10-20T09:00:58.471Z,1008.63
2022-10-20T09:01:58.576Z,1008.61
2022-10-20T09:02:58.448Z,1008.58
2022-10-20T09:03:58.444Z,1008.54
2022-10-20T09:04:58.432Z,1008.41
2022-10-20T09:05:58.417Z,1008.49
2022-10-20T09:06:58.425Z,1008.49
2022-10-20T09:07:58.401Z,1008.57
2022-10-20T09:08:58.432Z,1008.53
2022-10-20T09:09:58.377Z,1008.51
2022-10-20T09:10:58.365Z,1008.55
2022-10-20T09:11:58.369Z,1008.43
2022-10-20T09:12:58.338Z,1008.42
2022-10-20T09:13:58.327Z,1008.42
2022-10-20T09:14:58.326Z,1008.36
2022-10-20T09:15:58.327Z,1008.45
2022-10-20T09:17:00.848Z,1008.52
2022-10-20T09:17:58.288Z,1008.51
2022-10-20T09:18:58.268Z,1008.42
2022-10-20T09:19:58.259Z,1008.46
2022-10-20T09:20:58.254Z,1008.49
2022-10-20T09:21:58.263Z,1008.59
2022-10-20T09:22:58.373Z,1008.58
2022-10-20T09:23:58.217Z,1008.71
2022-10-20T09:24:58.203Z,1008.69
2022-10-20T09:25:58.198Z,1008.63
2022-10-20T09:26:59.485Z,1008.70
2022-10-20T09:27:58.175Z,1008.71
2022-10-20T09:29:12.422Z,1008.68
2022-10-20T09:29:59.148Z,1008.68
2022-10-20T09:30:58.135Z,1008.68
2022-10-20T09:31:58.155Z,1008.71
2022-10-20T09:32:58.452Z,1008.69
2022-10-20T09:33:58.106Z,1008.67
2022-10-20T09:34:58.097Z,1008.67
2022-10-20T09:35:58.080Z,1008.64
2022-10-20T09:36:58.077Z,1008.63
2022-10-20T09:37:58.072Z,1008.65
2022-10-20T09:38:58.053Z,1008.64
2022-10-20T09:39:58.041Z,1008.63
2022-10-20T09:40:58.025Z,1008.68
2022-10-20T09:41:58.034Z,1008.63
2022-10-20T09:42:58.032Z,1008.49
2022-10-20T09:43:58.279Z,1008.47
2022-10-20T09:44:57.977Z,1008.50
2022-10-20T09:45:57.969Z,1008.50
2022-10-20T09:46:57.958Z,1008.54
2022-10-20T09:47:57.994Z,1008.55
2022-10-20T09:48:57.942Z,1008.51
2022-10-20T09:50:00.911Z,1008.59
2022-10-20T09:50:57.904Z,1008.63
2022-10-20T09:51:57.903Z,1008.57
2022-10-20T09:52:57.899Z,1008.60
2022-10-20T09:53:57.887Z,1008.57
2022-10-20T09:54:57.880Z,1008.53
2022-10-20T09:55:57.856Z,1008.53
2022-10-20T09:56:57.853Z,1008.56
2022-10-20T09:57:57.937Z,1008.63
2022-10-20T09:58:57.819Z,1008.60
2022-10-20T10:00:04.479Z,1008.59
2022-10-20T10:00:58.833Z,1008.62
2022-10-20T10:01:57.796Z,1008.67
2022-10-20T10:02:57.788Z,1008.61
2022-10-20T10:03:57.815Z,1008.61
2022-10-20T10:04:57.759Z,1008.65
2022-10-20T10:05:57.750Z,1008.57
2022-10-20T10:06:57.738Z,1008.60
2022-10-20T10:07:57.727Z,1008.68
2022-10-20T10:08:57.835Z,1008.70
2022-10-20T10:09:57.699Z,1008.67
2022-10-20T10:10:57.688Z,1008.75
2022-10-20T10:11:57.676Z,1008.72
2022-10-20T10:12:57.732Z,1008.68
2022-10-20T10:13:57.665Z,1008.77
2022-10-20T10:14:57.640Z,1008.74
2022-10-20T10:15:57.631Z,1008.82
2022-10-20T10:16:57.625Z,1008.79
2022-10-20T10:17:57.611Z,1008.84
2022-10-20T10:18:57.614Z,1008.80
2022-10-20T10:19:57.606Z,1008.85
2022-10-20T10:20:57.582Z,1008.81
2022-10-20T10:21:57.589Z,1008.86
2022-10-20T10:22:57.557Z,1008.84
2022-10-20T10:23:57.561Z,1008.78
2022-10-20T10:24:57.537Z,1008.75
2022-10-20T10:26:00.639Z,1008.68
2022-10-20T10:26:58.513Z,1008.67
2022-10-20T10:27:57.496Z,1008.68
2022-10-20T10:28:57.507Z,1008.73
2022-10-20T10:29:57.489Z,1008.71
2022-10-20T10:30:57.463Z,1008.69
2022-10-20T10:31:57.453Z,1008.67
2022-10-20T10:32:57.446Z,1008.70
2022-10-20T10:33:57.453Z,1008.69
2022-10-20T10:34:57.416Z,1008.70
2022-10-20T10:35:57.429Z,1008.72
2022-10-20T10:36:57.398Z,1008.67
2022-10-20T10:37:57.385Z,1008.68
2022-10-20T10:38:57.403Z,1008.62
2022-10-20T10:39:57.369Z,1008.59
2022-10-20T10:40:57.362Z,1008.56
2022-10-20T10:42:57.343Z,1008.54
2022-10-20T10:43:57.332Z,1008.50
2022-10-20T10:44:57.316Z,1008.53
2022-10-20T10:45:57.305Z,1008.55
2022-10-20T10:46:57.294Z,1008.62
2022-10-20T10:47:57.299Z,1008.55
2022-10-20T10:48:57.280Z,1008.42
2022-10-20T10:49:57.256Z,1008.39
2022-10-20T10:50:57.239Z,1008.36
2022-10-20T10:51:57.259Z,1008.37
2022-10-20T10:52:57.222Z,1008.46
2022-10-20T10:53:57.257Z,1008.39
2022-10-20T10:54:57.192Z,1008.42
2022-10-20T10:55:57.230Z,1008.36
2022-10-20T10:56:57.178Z,1008.36
2022-10-20T10:57:57.170Z,1008.32
2022-10-20T10:58:57.154Z,1008.27
2022-10-20T10:59:57.154Z,1008.28
2022-10-20T11:00:57.162Z,1008.22
2022-10-20T11:01:57.129Z,1008.19
2022-10-20T11:02:57.106Z,1008.23
2022-10-20T11:03:57.101Z,1008.36
2022-10-20T11:04:57.103Z,1008.43
2022-10-20T11:05:57.080Z,1008.47
2022-10-20T11:06:58.126Z,1008.58
2022-10-20T11:07:57.079Z,1008.64
2022-10-20T11:08:57.114Z,1008.65
2022-10-20T11:09:57.049Z,1008.64
2022-10-20T11:10:57.021Z,1008.67
2022-10-20T11:11:57.004Z,1008.63
2022-10-20T11:12:56.998Z,1008.61
2022-10-20T11:13:56.987Z,1008.62
2022-10-20T11:14:56.985Z,1008.61
2022-10-20T11:15:56.958Z,1008.54
2022-10-20T11:16:56.962Z,1008.50
2022-10-20T11:17:56.937Z,1008.52
2022-10-20T11:18:56.931Z,1008.54
2022-10-20T11:19:56.922Z,1008.53
2022-10-20T11:20:56.927Z,1008.59
2022-10-20T11:21:56.907Z,1008.59
2022-10-20T11:22:56.886Z,1008.63
2022-10-20T11:23:56.900Z,1008.67
2022-10-20T11:24:56.868Z,1008.74
2022-10-20T11:25:56.864Z,1008.81
2022-10-20T11:26:56.844Z,1008.73
2022-10-20T11:27:56.827Z,1008.72
2022-10-20T11:28:56.813Z,1008.62
2022-10-20T11:29:56.801Z,1008.62
2022-10-20T11:30:56.806Z,1008.56
2022-10-20T11:31:56.787Z,1008.56
2022-10-20T11:32:56.766Z,1008.59
2022-10-20T11:33:56.767Z,1008.60
2022-10-20T11:34:56.750Z,1008.55
2022-10-20T11:35:56.771Z,1008.50
2022-10-20T11:36:56.732Z,1008.47
2022-10-20T11:37:56.719Z,1008.47
2022-10-20T11:38:56.699Z,1008.56
2022-10-20T11:39:56.714Z,1008.56
2022-10-20T11:40:56.694Z,1008.52
2022-10-20T11:41:56.674Z,1008.56
2022-10-20T11:42:56.664Z,1008.54
2022-10-20T11:43:56.655Z,1008.53
2022-10-20T11:44:56.642Z,1008.49
2022-10-20T11:45:56.622Z,1008.47
2022-10-20T11:46:56.625Z,1008.49
2022-10-20T11:47:56.608Z,1008.51
2022-10-20T11:49:00.225Z,1008.49
2022-10-20T11:49:57.578Z,1008.49
2022-10-20T11:50:56.589Z,1008.47
2022-10-20T11:51:56.583Z,1008.47
2022-10-20T11:52:56.574Z,1008.44
2022-10-20T11:53:56.541Z,1008.41
2022-10-20T11:54:56.527Z,1008.44
2022-10-20T11:55:56.535Z,1008.40
2022-10-20T11:56:56.525Z,1008.35
2022-10-20T11:57:58.959Z,1008.36
2022-10-20T11:58:56.476Z,1008.30
2022-10-20T11:59:56.472Z,1008.16
2022-10-20T12:00:58.953Z,1008.12
2022-10-20T12:01:56.522Z,1008.09
2022-10-20T12:02:56.436Z,1007.98
2022-10-20T12:03:56.423Z,1007.94
2022-10-20T12:04:56.410Z,1007.93
2022-10-20T12:05:56.398Z,1007.81
2022-10-20T12:06:56.392Z,1007.70
2022-10-20T12:08:11.027Z,1007.72
2022-10-20T12:08:57.394Z,1007.94
2022-10-20T12:09:56.360Z,1008.02
2022-10-20T12:10:56.351Z,1007.96
2022-10-20T12:11:56.360Z,1007.99
2022-10-20T12:12:56.331Z,1008.06
2022-10-20T12:13:56.327Z,1008.04
2022-10-20T12:14:56.304Z,1007.94
2022-10-20T12:15:56.294Z,1007.97
2022-10-20T12:16:56.296Z,1007.91
2022-10-20T12:17:56.290Z,1007.94
2022-10-20T12:18:56.300Z,1007.89
2022-10-20T12:19:56.243Z,1007.76
2022-10-20T12:20:56.241Z,1007.75
2022-10-20T12:21:56.291Z,1007.79
2022-10-20T12:22:56.224Z,1007.86
2022-10-20T12:23:56.195Z,1007.85
2022-10-20T12:24:56.200Z,1007.78
2022-10-20T12:25:56.236Z,1007.69
2022-10-20T12:26:56.163Z,1007.64
2022-10-20T12:27:56.246Z,1007.71
2022-10-20T12:28:56.147Z,1007.71
2022-10-20T12:29:56.138Z,1007.67
2022-10-20T12:30:56.117Z,1007.60
2022-10-20T12:31:57.025Z,1007.60
2022-10-20T12:32:56.111Z,1007.62
2022-10-20T12:33:56.086Z,1007.59
2022-10-20T12:34:56.073Z,1007.54
2022-10-20T12:35:56.062Z,1007.51
2022-10-20T12:36:56.094Z,1007.50
2022-10-20T12:37:56.077Z,1007.54
2022-10-20T12:38:56.035Z,1007.53
2022-10-20T12:39:56.022Z,1007.53
2022-10-20T12:40:56.011Z,1007.54
2022-10-20T12:41:56.594Z,1007.50
2022-10-20T12:42:55.989Z,1007.55
2022-10-20T12:43:56.015Z,1007.57
2022-10-20T12:44:55.961Z,1007.57
2022-10-20T12:45:55.954Z,1007.62
2022-10-20T12:46:55.939Z,1007.63
2022-10-20T12:47:55.925Z,1007.65
2022-10-20T12:48:55.925Z,1007.69
2022-10-20T12:49:55.919Z,1007.66
2022-10-20T12:50:55.902Z,1007.66
2022-10-20T12:51:55.889Z,1007.67
2022-10-20T12:52:55.884Z,1007.67
2022-10-20T12:53:55.858Z,1007.69
2022-10-20T12:54:55.860Z,1007.63
2022-10-20T12:55:55.836Z,1007.66
2022-10-20T12:56:55.836Z,1007.65
2022-10-20T12:57:55.812Z,1007.60
2022-10-20T12:58:55.811Z,1007.67
2022-10-20T12:59:55.828Z,1007.63
2022-10-20T13:00:55.844Z,1007.69
2022-10-20T13:01:55.777Z,1007.65
2022-10-20T13:02:55.759Z,1007.63
2022-10-20T13:03:55.748Z,1007.65
2022-10-20T13:04:55.757Z,1007.63
2022-10-20T13:05:55.727Z,1007.59
2022-10-20T13:06:55.714Z,1007.54
2022-10-20T13:07:55.709Z,1007.56
2022-10-20T13:08:55.749Z,1007.58
2022-10-20T13:09:58.942Z,1007.55
2022-10-20T13:10:56.683Z,1007.52
2022-10-20T13:11:55.660Z,1007.47
2022-10-20T13:12:55.655Z,1007.45
2022-10-20T13:13:57.573Z,1007.49
2022-10-20T13:14:55.638Z,1007.47
2022-10-20T13:15:55.654Z,1007.51
2022-10-20T13:16:55.606Z,1007.51
2022-10-20T13:17:55.592Z,1007.52
2022-10-20T13:18:55.581Z,1007.50
2022-10-20T13:20:00.451Z,1007.51
2022-10-20T13:20:56.575Z,1007.50
2022-10-20T13:21:55.552Z,1007.48
2022-10-20T13:22:55.609Z,1007.46
2022-10-20T13:23:55.533Z,1007.44
2022-10-20T13:24:56.798Z,1007.44
2022-10-20T13:25:55.512Z,1007.51
2022-10-20T13:26:55.493Z,1007.47
2022-10-20T13:27:55.480Z,1007.48
2022-10-20T13:28:55.478Z,1007.50
2022-10-20T13:29:55.462Z,1007.46
2022-10-20T13:30:55.460Z,1007.40
2022-10-20T13:31:58.124Z,1007.36
2022-10-20T13:33:11.406Z,1007.35
2022-10-20T13:34:04.309Z,1007.38
2022-10-20T13:34:56.406Z,1007.41
2022-10-20T13:35:55.401Z,1007.33
2022-10-20T13:36:55.380Z,1007.32
2022-10-20T13:37:55.370Z,1007.35
2022-10-20T13:38:55.358Z,1007.26
2022-10-20T13:39:55.351Z,1007.26
2022-10-20T13:40:55.402Z,1007.26
2022-10-20T13:41:55.319Z,1007.26
2022-10-20T13:42:55.320Z,1007.19
2022-10-20T13:43:57.828Z,1007.20
2022-10-20T13:44:55.288Z,1007.20
2022-10-20T13:45:55.277Z,1007.19
2022-10-20T13:46:55.286Z,1007.15
2022-10-20T13:47:55.278Z,1007.14
2022-10-20T13:48:55.251Z,1007.14
2022-10-20T13:49:55.244Z,1007.16
2022-10-20T13:50:55.231Z,1007.11
2022-10-20T13:51:55.220Z,1007.15
2022-10-20T13:52:55.197Z,1007.16
2022-10-20T13:53:55.192Z,1007.14
2022-10-20T13:54:55.183Z,1007.15
2022-10-20T13:55:55.171Z,1007.19
2022-10-20T13:56:55.173Z,1007.20
2022-10-20T13:57:55.710Z,1007.18
2022-10-20T13:58:55.134Z,1007.22
2022-10-20T13:59:55.140Z,1007.22
2022-10-20T14:00:55.195Z,1007.19
2022-10-20T14:01:55.118Z,1007.18
2022-10-20T14:02:55.086Z,1007.19
2022-10-20T14:03:55.096Z,1007.18
2022-10-20T14:04:55.071Z,1007.18
2022-10-20T14:05:55.058Z,1007.10
2022-10-20T14:06:55.060Z,1007.12
2022-10-20T14:07:55.030Z,1007.11
2022-10-20T14:08:55.037Z,1007.19
2022-10-20T14:09:55.005Z,1007.16
2022-10-20T14:10:55.005Z,1007.14
2022-10-20T14:11:54.987Z,1007.16
2022-10-20T14:12:54.995Z,1007.11
2022-10-20T14:13:54.971Z,1007.07
2022-10-20T14:14:59.259Z,1007.05
2022-10-20T14:15:55.935Z,1007.08
2022-10-20T14:16:54.935Z,1007.06
2022-10-20T14:18:54.911Z,1007.08
2022-10-20T14:19:54.921Z,1007.08
2022-10-20T14:20:54.883Z,1007.07
2022-10-20T14:21:54.876Z,1007.05
2022-10-20T14:22:54.883Z,1007.02
2022-10-20T14:23:54.855Z,1007.09
2022-10-20T14:24:54.839Z,1007.06
2022-10-20T14:25:54.828Z,1007.02
2022-10-20T14:26:54.917Z,1006.99
2022-10-20T14:27:54.830Z,1006.99
2022-10-20T14:28:54.793Z,1006.96
2022-10-20T14:29:54.781Z,1006.91
2022-10-20T14:30:54.776Z,1006.90
2022-10-20T14:31:54.764Z,1006.83
2022-10-20T14:32:54.769Z,1006.81
2022-10-20T14:33:54.744Z,1006.85
2022-10-20T14:34:54.738Z,1006.86
2022-10-20T14:35:54.742Z,1006.85
2022-10-20T14:36:54.704Z,1006.82
2022-10-20T14:37:54.865Z,1006.82
2022-10-20T14:38:54.680Z,1006.84
2022-10-20T14:39:54.674Z,1006.87
2022-10-20T14:40:54.659Z,1006.84
2022-10-20T14:41:54.646Z,1006.88
2022-10-20T14:42:54.657Z,1006.83
2022-10-20T14:43:54.623Z,1006.90
2022-10-20T14:44:54.624Z,1006.94
2022-10-20T14:45:54.604Z,1006.91
2022-10-20T14:46:54.596Z,1006.91
2022-10-20T14:47:54.622Z,1006.93
2022-10-20T14:48:54.574Z,1007.03
2022-10-20T14:49:54.553Z,1006.97
2022-10-20T14:50:54.551Z,1007.01
2022-10-20T14:51:54.554Z,1006.95
2022-10-20T14:52:54.543Z,1006.93
2022-10-20T14:53:54.511Z,1006.91
2022-10-20T14:54:54.499Z,1006.91